Time;durP1;ratioP1;P1;durP2;ratioP2;P2;SDS_P1;SDS_P2;PMS_P1;PMS_P2;Temp;Humidity;BMP_temperature;BMP_pressure;BME280_temperature;BME280_humidity;BME280_pressure;Samples;Min_cycle;Max_cycle;Signal;HPM_P1;HPM_P2
2022/06/07 00:00:17;;;;;;;2.58;0.70;;;12.70;59.50;;;;;;4948065;28;20130;-68
2022/06/07 00:02:44;;;;;;;1.67;0.80;;;12.70;60.40;;;;;;4934182;29;20727;-67
2022/06/07 00:05:14;;;;;;;1.35;0.82;;;12.80;60.60;;;;;;4950389;28;20130;-68
2022/06/07 00:07:41;;;;;;;1.02;0.70;;;12.80;60.70;;;;;;4948631;28;20106;-69
2022/06/07 00:10:09;;;;;;;1.85;0.90;;;12.80;60.40;;;;;;4945051;28;20808;-69
2022/06/07 00:12:36;;;;;;;0.65;0.50;;;12.90;60.10;;;;;;4968922;28;20188;-68
2022/06/07 00:15:04;;;;;;;2.10;0.70;;;12.90;59.40;;;;;;4968641;28;20579;-68
2022/06/07 00:17:55;;;;;;;1.00;0.50;;;12.90;58.70;;;;;;4967269;28;20041;-68
2022/06/07 00:20:22;;;;;;;0.98;0.50;;;13.00;58.80;;;;;;4942304;28;20035;-68
2022/06/07 00:22:49;;;;;;;1.48;0.57;;;13.00;58.50;;;;;;4969166;28;20039;-68
2022/06/07 00:25:17;;;;;;;0.95;0.70;;;13.00;58.00;;;;;;4953808;28;20517;-68
2022/06/07 00:27:47;;;;;;;1.15;0.52;;;13.00;58.10;;;;;;4969497;28;21264;-68
2022/06/07 00:30:14;;;;;;;4.93;0.70;;;13.00;58.00;;;;;;4950776;28;20039;-68
2022/06/07 00:32:42;;;;;;;1.15;0.60;;;13.10;58.50;;;;;;4995129;28;20454;-68
2022/06/07 00:35:10;;;;;;;2.13;0.52;;;13.10;58.30;;;;;;4967009;28;20101;-68
2022/06/07 00:37:37;;;;;;;1.63;0.70;;;13.10;58.70;;;;;;4979479;28;20030;-68
2022/06/07 00:40:06;;;;;;;1.00;0.57;;;13.10;59.20;;;;;;4965879;28;20038;-69
2022/06/07 00:42:34;;;;;;;3.80;0.70;;;13.20;59.00;;;;;;4967877;28;20034;-68
2022/06/07 00:45:01;;;;;;;1.48;0.80;;;13.20;58.80;;;;;;4969668;28;20037;-69
2022/06/07 00:47:29;;;;;;;2.25;0.98;;;13.20;57.90;;;;;;4949306;28;20498;-66
2022/06/07 00:50:11;;;;;;;2.42;1.05;;;13.30;58.60;;;;;;4971581;28;20721;-66
2022/06/07 00:52:38;;;;;;;2.72;0.80;;;13.30;57.20;;;;;;4986642;28;20031;-67
2022/06/07 00:55:06;;;;;;;3.83;1.30;;;13.40;57.60;;;;;;4964511;28;20121;-67
2022/06/07 00:57:34;;;;;;;2.63;0.80;;;13.50;58.10;;;;;;4964847;28;20113;-67
2022/06/07 01:00:03;;;;;;;1.50;0.63;;;13.60;57.10;;;;;;4936029;28;20738;-67
2022/06/07 01:02:30;;;;;;;4.00;0.90;;;13.60;56.30;;;;;;4952444;28;20034;-67
2022/06/07 01:04:57;;;;;;;1.60;0.52;;;13.60;57.20;;;;;;4967548;28;20481;-66
2022/06/07 01:16:21;;;;;;;0.77;0.45;;;13.70;56.70;;;;;;4955496;28;20057;-67
2022/06/07 01:18:48;;;;;;;0.98;0.47;;;13.70;56.50;;;;;;4987795;28;20133;-67
2022/06/07 01:21:35;;;;;;;0.77;0.60;;;13.80;55.10;;;;;;4944487;28;20046;-67
2022/06/07 01:24:02;;;;;;;0.80;0.45;;;13.90;53.10;;;;;;4981461;28;20367;-67
2022/06/07 01:26:30;;;;;;;1.58;0.55;;;13.90;53.20;;;;;;4967738;28;20122;-67
2022/06/07 01:28:57;;;;;;;1.75;0.95;;;13.90;54.10;;;;;;4940279;28;20490;-67
2022/06/07 01:31:24;;;;;;;1.08;0.68;;;13.90;54.50;;;;;;4966667;28;20374;-67
2022/06/07 01:33:51;;;;;;;2.33;0.55;;;13.90;54.00;;;;;;4968650;28;20058;-67
2022/06/07 01:36:18;;;;;;;0.98;0.52;;;13.90;53.90;;;;;;4966981;28;20110;-66
2022/06/07 01:41:53;;;;;;;2.38;0.50;;;13.90;53.70;;;;;;4967732;28;20093;-65
2022/06/07 01:44:19;;;;;;;1.83;0.68;;;14.00;51.40;;;;;;4970852;28;20042;-66
2022/06/07 01:46:46;;;;;;;1.00;0.52;;;14.10;51.20;;;;;;4970684;28;20035;-65
2022/06/07 01:49:14;;;;;;;3.90;0.57;;;14.10;50.70;;;;;;4965541;28;20046;-66
2022/06/07 01:51:41;;;;;;;1.75;0.45;;;14.10;51.20;;;;;;4978885;28;20066;-67
2022/06/07 01:54:10;;;;;;;0.70;0.32;;;14.20;51.20;;;;;;4969661;28;20143;-65
2022/06/07 01:56:38;;;;;;;1.73;0.22;;;14.20;49.70;;;;;;4954852;28;20509;-65
2022/06/07 01:59:06;;;;;;;0.40;0.25;;;14.20;50.30;;;;;;4948833;28;20039;-66
2022/06/07 02:01:33;;;;;;;1.10;0.40;;;14.30;49.40;;;;;;4973941;28;20097;-66
2022/06/07 02:04:01;;;;;;;2.55;0.95;;;14.30;49.00;;;;;;5000854;28;20117;-65
2022/06/07 02:06:28;;;;;;;0.75;0.65;;;14.30;49.40;;;;;;4970594;28;20081;-65
2022/06/07 02:08:55;;;;;;;0.50;0.50;;;14.20;50.00;;;;;;4971626;28;20038;-65
2022/06/07 02:11:23;;;;;;;0.30;0.30;;;14.30;49.00;;;;;;4977979;28;20046;-65
2022/06/07 02:13:52;;;;;;;1.52;0.55;;;14.30;49.10;;;;;;4972548;28;20362;-65
2022/06/07 02:16:19;;;;;;;0.52;0.50;;;14.30;49.10;;;;;;4972717;28;20034;-68
2022/06/07 02:18:47;;;;;;;0.47;0.40;;;14.30;48.80;;;;;;4987726;28;20117;-68
2022/06/07 02:21:15;;;;;;;0.30;0.30;;;14.30;49.10;;;;;;4954177;28;20039;-68
2022/06/07 02:23:42;;;;;;;0.25;0.25;;;14.30;49.00;;;;;;5003638;28;20031;-67
2022/06/07 02:26:14;;;;;;;1.50;0.30;;;14.30;49.70;;;;;;4987511;28;20489;-66
2022/06/07 02:28:42;;;;;;;1.02;0.40;;;14.40;48.60;;;;;;4971228;28;20480;-66
2022/06/07 02:31:09;;;;;;;1.48;0.30;;;14.30;48.80;;;;;;4981053;28;20110;-65
2022/06/07 02:33:36;;;;;;;2.72;1.10;;;14.30;48.20;;;;;;4987984;28;20098;-66
2022/06/07 02:36:05;;;;;;;0.82;0.52;;;14.30;48.60;;;;;;4983199;28;20066;-66
2022/06/07 02:38:32;;;;;;;0.40;0.40;;;14.30;48.50;;;;;;4960531;28;20054;-66
2022/06/07 02:41:00;;;;;;;0.80;0.40;;;14.40;47.30;;;;;;5000157;28;20031;-67
2022/06/07 02:43:27;;;;;;;0.40;0.28;;;14.40;48.10;;;;;;4938951;28;20486;-67
2022/06/07 02:45:54;;;;;;;0.80;0.57;;;14.50;48.00;;;;;;4973852;28;20043;-66
2022/06/07 02:48:21;;;;;;;2.95;0.50;;;14.50;48.10;;;;;;4970745;28;20031;-67
2022/06/07 02:50:49;;;;;;;0.45;0.20;;;14.70;47.10;;;;;;4971332;28;20041;-67
2022/06/07 02:53:16;;;;;;;0.93;0.32;;;14.70;46.30;;;;;;4975953;28;20051;-67
2022/06/07 02:55:43;;;;;;;1.80;0.35;;;14.70;46.00;;;;;;4971010;28;20034;-67
2022/06/07 02:58:10;;;;;;;1.33;0.47;;;14.70;46.10;;;;;;4975187;28;20035;-68
2022/06/07 03:00:38;;;;;;;0.60;0.50;;;14.70;45.90;;;;;;4957586;28;20042;-68
2022/06/07 03:03:05;;;;;;;0.15;0.15;;;14.70;46.70;;;;;;4995129;28;20034;-68
2022/06/07 03:05:32;;;;;;;2.10;0.30;;;14.70;45.50;;;;;;4974065;28;20065;-68
2022/06/07 03:07:59;;;;;;;1.52;0.60;;;14.70;45.00;;;;;;4977755;28;20054;-68
2022/06/07 03:10:26;;;;;;;2.30;0.50;;;14.70;45.10;;;;;;4969996;28;20105;-68
2022/06/07 03:12:54;;;;;;;0.65;0.30;;;14.70;44.80;;;;;;4978298;28;20065;-67
2022/06/07 03:15:21;;;;;;;1.10;0.57;;;14.80;44.80;;;;;;4975681;28;20145;-69
2022/06/07 03:17:48;;;;;;;0.40;0.40;;;14.80;45.30;;;;;;4972444;28;20033;-68
2022/06/07 03:20:15;;;;;;;0.15;0.13;;;14.70;46.10;;;;;;4953788;28;20046;-70
2022/06/07 03:22:43;;;;;;;0.45;0.20;;;14.70;45.10;;;;;;4971353;28;20037;-68
2022/06/07 03:25:11;;;;;;;1.60;0.82;;;14.70;45.60;;;;;;4962761;28;20497;-67
2022/06/07 03:27:38;;;;;;;0.57;0.50;;;14.80;45.00;;;;;;4970601;28;20039;-66
2022/06/07 03:30:07;;;;;;;0.50;0.20;;;14.80;44.40;;;;;;4980029;28;20041;-69
2022/06/07 03:32:35;;;;;;;0.47;0.43;;;14.80;44.20;;;;;;4953646;28;20126;-67
2022/06/07 03:35:03;;;;;;;1.65;0.73;;;14.80;43.50;;;;;;4966804;28;20057;-66
2022/06/07 03:37:30;;;;;;;0.85;0.50;;;14.70;43.50;;;;;;4950438;28;20121;-68
2022/06/07 03:39:58;;;;;;;0.43;0.40;;;14.80;43.90;;;;;;4949150;28;20043;-68
2022/06/07 03:42:25;;;;;;;0.22;0.22;;;14.80;44.30;;;;;;4981979;28;20043;-68
2022/06/07 03:44:52;;;;;;;0.68;0.30;;;14.70;44.50;;;;;;4970478;28;20042;-68
2022/06/07 03:47:19;;;;;;;0.32;0.30;;;14.70;44.00;;;;;;4947406;28;20074;-66
2022/06/07 03:49:47;;;;;;;0.65;0.22;;;14.70;44.30;;;;;;4954343;28;20058;-66
2022/06/07 03:52:15;;;;;;;1.42;0.35;;;14.80;43.60;;;;;;4971381;28;20038;-66
2022/06/07 03:54:42;;;;;;;0.45;0.32;;;14.80;43.10;;;;;;4954619;28;20093;-67
2022/06/07 03:57:09;;;;;;;0.40;0.25;;;14.80;44.30;;;;;;4969964;28;20081;-66
2022/06/07 03:59:37;;;;;;;0.32;0.30;;;14.80;44.40;;;;;;4944757;28;20482;-68
2022/06/07 04:02:06;;;;;;;0.60;0.30;;;14.80;44.60;;;;;;4950865;28;20413;-69
2022/06/07 04:04:36;;;;;;;4.15;0.88;;;14.80;44.10;;;;;;4967095;28;20089;-69
2022/06/07 04:09:50;;;;;;;1.10;0.40;;;14.80;44.90;;;;;;4967552;28;20542;-68
2022/06/07 04:12:17;;;;;;;0.35;0.35;;;14.80;44.60;;;;;;4959325;28;20034;-68
2022/06/07 04:14:45;;;;;;;1.25;0.40;;;14.80;44.90;;;;;;4948763;28;20053;-68
2022/06/07 04:17:13;;;;;;;3.65;0.30;;;14.80;45.00;;;;;;4967255;28;20066;-68
2022/06/07 04:19:40;;;;;;;0.35;0.35;;;14.80;45.20;;;;;;4941243;28;20100;-68
2022/06/07 04:22:08;;;;;;;1.85;0.40;;;14.80;45.80;;;;;;4984726;28;20405;-68
2022/06/07 04:24:35;;;;;;;1.23;0.40;;;14.70;45.60;;;;;;4963412;28;20065;-68
2022/06/07 04:27:02;;;;;;;3.55;0.60;;;14.70;45.70;;;;;;4953171;28;20097;-68
2022/06/07 04:29:29;;;;;;;2.08;0.43;;;14.80;45.40;;;;;;4968697;28;20461;-68
2022/06/07 04:31:57;;;;;;;0.40;0.30;;;14.80;45.70;;;;;;4968466;28;20051;-67
2022/06/07 04:34:24;;;;;;;0.40;0.20;;;14.80;44.90;;;;;;4980832;28;20043;-64
2022/06/07 04:36:52;;;;;;;0.65;0.40;;;14.80;44.90;;;;;;4970856;28;20035;-65
2022/06/07 05:10:05;;;;;;;0.22;0.17;;;14.90;45.50;;;;;;4958957;28;20477;-65
2022/06/07 05:12:32;;;;;;;2.95;0.70;;;14.80;46.30;;;;;;4966773;28;20040;-65
2022/06/07 05:15:00;;;;;;;3.22;0.30;;;14.80;47.20;;;;;;4971031;28;20039;-68
2022/06/07 05:17:27;;;;;;;1.58;0.60;;;14.80;47.20;;;;;;4980824;28;20043;-65
2022/06/07 05:19:54;;;;;;;0.50;0.50;;;14.80;47.90;;;;;;4971439;28;20053;-66
2022/06/07 05:22:22;;;;;;;1.08;0.50;;;14.70;48.30;;;;;;4971815;28;20093;-66
2022/06/07 05:24:49;;;;;;;2.85;1.10;;;14.70;48.80;;;;;;4975390;28;20049;-66
2022/06/07 05:27:19;;;;;;;6.22;1.20;;;14.70;49.30;;;;;;4973937;28;20154;-65
2022/06/07 05:29:54;;;;;;;2.80;0.80;;;14.60;48.90;;;;;;4948855;28;20030;-66
2022/06/07 05:32:21;;;;;;;3.00;1.00;;;14.70;47.20;;;;;;4971745;28;20126;-66
2022/06/07 05:34:48;;;;;;;1.77;0.88;;;14.70;47.60;;;;;;4951278;28;20062;-66
2022/06/07 05:37:20;;;;;;;2.28;1.10;;;14.60;46.90;;;;;;4974407;28;20043;-65
2022/06/07 05:39:47;;;;;;;0.80;0.70;;;14.60;46.80;;;;;;4963802;28;20430;-67
2022/06/07 05:42:16;;;;;;;3.15;0.93;;;14.60;46.90;;;;;;4949949;28;20089;-66
2022/06/07 05:44:43;;;;;;;1.85;0.60;;;14.60;47.30;;;;;;4968239;28;20027;-66
2022/06/07 05:47:10;;;;;;;1.05;0.60;;;14.50;47.60;;;;;;4969722;28;20437;-66
2022/06/07 05:49:38;;;;;;;0.68;0.50;;;14.50;47.60;;;;;;4971513;28;20073;-66
2022/06/07 05:52:07;;;;;;;1.52;0.68;;;14.50;48.00;;;;;;4964928;28;20039;-66
2022/06/07 05:54:38;;;;;;;2.63;0.50;;;14.50;47.30;;;;;;4963502;28;20071;-66
2022/06/07 05:57:06;;;;;;;0.75;0.55;;;14.50;47.30;;;;;;4967809;28;20034;-66
2022/06/07 05:59:33;;;;;;;3.13;0.88;;;14.50;48.10;;;;;;4954454;28;20047;-66
2022/06/07 06:02:01;;;;;;;1.63;0.60;;;14.50;48.40;;;;;;4947388;28;20451;-67
2022/06/07 06:04:28;;;;;;;1.05;0.57;;;14.50;48.40;;;;;;4975088;28;20455;-67
2022/06/07 06:06:57;;;;;;;0.47;0.40;;;14.40;49.30;;;;;;4968568;28;20370;-67
2022/06/07 06:12:10;;;;;;;5.13;0.60;;;14.40;49.20;;;;;;4967696;28;20050;-66
2022/06/07 06:14:38;;;;;;;3.83;0.90;;;14.30;48.60;;;;;;4967704;28;20082;-65
2022/06/07 06:17:06;;;;;;;3.38;0.73;;;14.30;49.20;;;;;;4968035;28;20042;-66
2022/06/07 06:19:33;;;;;;;0.70;0.55;;;14.20;49.50;;;;;;4952488;28;20046;-66
2022/06/07 06:22:00;;;;;;;4.68;0.60;;;14.20;49.50;;;;;;4968652;28;20118;-67
2022/06/07 06:24:28;;;;;;;1.65;0.50;;;14.20;50.20;;;;;;4972556;28;20038;-67
2022/06/07 06:26:55;;;;;;;0.50;0.45;;;14.20;50.20;;;;;;4970689;28;20109;-68
2022/06/07 06:29:24;;;;;;;2.70;0.50;;;14.10;50.80;;;;;;4972179;28;20082;-68
2022/06/07 06:31:51;;;;;;;0.60;0.60;;;14.10;51.40;;;;;;4967157;28;20078;-68
2022/06/07 06:34:19;;;;;;;0.65;0.50;;;14.10;50.90;;;;;;4973211;28;20061;-68
2022/06/07 06:36:47;;;;;;;3.08;0.70;;;14.00;50.60;;;;;;4972548;28;20042;-68
2022/06/07 06:39:15;;;;;;;2.08;0.80;;;14.00;50.30;;;;;;4974438;28;20121;-68
2022/06/07 06:41:45;;;;;;;4.88;0.70;;;13.90;50.90;;;;;;4978200;28;20445;-68
2022/06/07 06:44:12;;;;;;;1.70;0.60;;;14.00;50.90;;;;;;4980228;28;20450;-68
2022/06/07 06:46:41;;;;;;;0.63;0.60;;;13.90;51.00;;;;;;4929530;28;20031;-68
2022/06/07 06:49:09;;;;;;;1.58;0.60;;;13.90;50.70;;;;;;4965135;28;20098;-70
2022/06/07 06:51:36;;;;;;;2.63;0.63;;;13.90;51.00;;;;;;4956149;28;20129;-67
2022/06/07 06:54:04;;;;;;;2.53;0.70;;;13.80;51.80;;;;;;4984225;28;20056;-67
2022/06/07 06:56:31;;;;;;;1.80;0.93;;;13.70;51.30;;;;;;4969082;28;20035;-68
2022/06/07 06:58:58;;;;;;;1.40;0.68;;;13.70;51.20;;;;;;4971807;28;20035;-68
2022/06/07 07:01:31;;;;;;;1.67;1.05;;;13.80;51.10;;;;;;4979344;28;20034;-68
2022/06/07 07:04:00;;;;;;;1.55;0.82;;;13.70;50.60;;;;;;4970639;28;20418;-66
2022/06/07 07:06:27;;;;;;;1.10;0.47;;;13.70;51.00;;;;;;4970320;28;20035;-68
2022/06/07 07:08:57;;;;;;;0.60;0.50;;;13.70;50.80;;;;;;4954280;28;20039;-67
2022/06/07 07:11:29;;;;;;;0.65;0.50;;;13.70;49.90;;;;;;4936255;28;20045;-65
2022/06/07 07:13:57;;;;;;;1.75;0.60;;;13.70;50.00;;;;;;4957792;28;20050;-65
2022/06/07 07:16:26;;;;;;;2.28;0.65;;;13.70;50.50;;;;;;4986150;28;20035;-65
2022/06/07 07:18:54;;;;;;;1.73;0.85;;;13.70;50.20;;;;;;4970072;28;20520;-65
2022/06/07 07:21:26;;;;;;;1.45;0.73;;;13.70;49.90;;;;;;4984367;28;20037;-65
2022/06/07 07:23:53;;;;;;;1.73;0.60;;;13.70;49.90;;;;;;4967870;28;20043;-67
2022/06/07 07:26:25;;;;;;;1.45;0.73;;;13.70;50.30;;;;;;4986520;28;20038;-67
2022/06/07 07:28:55;;;;;;;0.90;0.70;;;13.70;50.40;;;;;;4947855;28;20038;-67
2022/06/07 07:31:30;;;;;;;0.82;0.68;;;13.70;50.50;;;;;;4967278;28;20035;-67
2022/06/07 07:33:57;;;;;;;3.10;0.70;;;13.70;50.50;;;;;;4983179;28;20118;-65
2022/06/07 07:36:25;;;;;;;3.85;0.70;;;13.60;50.30;;;;;;4958265;28;20413;-65
2022/06/07 07:38:52;;;;;;;4.63;0.65;;;13.70;50.40;;;;;;4969336;28;20047;-67
2022/06/07 07:41:30;;;;;;;2.25;1.08;;;13.60;50.40;;;;;;4965692;28;20065;-67
2022/06/07 07:43:59;;;;;;;1.50;1.10;;;13.60;50.80;;;;;;4970819;28;20066;-69
2022/06/07 07:46:28;;;;;;;1.13;0.70;;;13.70;51.00;;;;;;4969954;28;20023;-66
2022/06/07 07:48:56;;;;;;;1.50;0.80;;;13.60;51.20;;;;;;4974422;28;20062;-66
2022/06/07 07:51:34;;;;;;;0.95;0.80;;;13.60;50.90;;;;;;4951405;28;20493;-66
2022/06/07 07:54:02;;;;;;;1.55;1.00;;;13.70;51.10;;;;;;4968944;28;20051;-66
2022/06/07 07:56:30;;;;;;;1.48;0.88;;;13.60;50.40;;;;;;4969269;28;20144;-65
2022/06/07 07:58:57;;;;;;;1.80;0.90;;;13.70;50.80;;;;;;4956154;28;20031;-64
2022/06/07 08:01:27;;;;;;;1.40;0.75;;;13.60;50.70;;;;;;4968070;28;20039;-68
2022/06/07 08:03:55;;;;;;;0.95;0.50;;;13.70;50.80;;;;;;4953759;28;20654;-68
2022/06/07 08:06:23;;;;;;;2.25;1.00;;;13.70;50.80;;;;;;4949963;28;20039;-68
2022/06/07 08:08:52;;;;;;;1.67;0.85;;;13.60;50.60;;;;;;4968199;28;20061;-70
2022/06/07 08:11:20;;;;;;;1.48;1.10;;;13.70;51.30;;;;;;4969987;28;20063;-70
2022/06/07 08:13:47;;;;;;;1.63;0.80;;;13.60;51.10;;;;;;4939383;28;20045;-69
2022/06/07 08:16:15;;;;;;;2.05;0.90;;;13.60;51.30;;;;;;4949516;28;20454;-67
2022/06/07 08:18:43;;;;;;;1.75;0.85;;;13.60;50.90;;;;;;4953897;28;20122;-67
2022/06/07 08:21:13;;;;;;;4.30;0.90;;;13.60;51.20;;;;;;4953497;28;20043;-67
2022/06/07 08:23:40;;;;;;;1.15;0.90;;;13.60;51.60;;;;;;4957085;28;20569;-67
2022/06/07 08:26:08;;;;;;;1.42;0.73;;;13.60;51.40;;;;;;4956534;28;20240;-68
2022/06/07 08:28:35;;;;;;;0.88;0.73;;;13.50;51.40;;;;;;4974455;28;20031;-67
2022/06/07 08:31:03;;;;;;;0.93;0.60;;;13.50;51.60;;;;;;4937704;28;20035;-69
2022/06/07 09:30:36;;;;;;;1.00;0.55;;;12.70;59.30;;;;;;4933324;28;20045;-67
2022/06/07 09:33:10;;;;;;;0.73;0.73;;;12.70;59.60;;;;;;4951601;28;20066;-68
2022/06/07 09:35:39;;;;;;;1.13;0.77;;;12.60;60.00;;;;;;4944129;28;20048;-68
2022/06/07 09:38:13;;;;;;;1.48;0.80;;;12.70;59.90;;;;;;4964005;28;20035;-68
2022/06/07 09:40:57;;;;;;;1.17;0.80;;;12.60;60.10;;;;;;4942809;28;20182;-69
2022/06/07 09:43:28;;;;;;;1.00;0.90;;;12.60;60.20;;;;;;4955511;28;20031;-70
2022/06/07 09:46:00;;;;;;;1.80;0.70;;;12.50;60.20;;;;;;4931462;28;20050;-68
2022/06/07 09:48:38;;;;;;;1.17;0.82;;;12.50;60.30;;;;;;4931147;29;20038;-67
2022/06/07 09:51:25;;;;;;;1.45;0.90;;;12.50;60.80;;;;;;4942507;29;20502;-68
2022/06/07 09:53:55;;;;;;;1.15;0.80;;;12.50;60.90;;;;;;4936089;29;20047;-67
2022/06/07 09:56:34;;;;;;;2.25;0.70;;;12.50;60.70;;;;;;4951152;28;20051;-66
2022/06/07 09:59:26;;;;;;;1.73;0.93;;;12.50;60.40;;;;;;4937913;28;20059;-66
2022/06/07 10:02:17;;;;;;;1.83;0.85;;;12.40;60.20;;;;;;4951730;28;20047;-67
2022/06/07 10:05:31;;;;;;;1.67;0.90;;;12.40;60.50;;;;;;4949941;28;20039;-65
2022/06/07 10:08:14;;;;;;;1.10;0.70;;;12.40;60.90;;;;;;4895385;28;20035;-69
2022/06/07 10:11:02;;;;;;;2.80;1.00;;;12.30;60.80;;;;;;4953921;28;20082;-66
2022/06/07 10:14:08;;;;;;;1.05;0.88;;;12.30;60.60;;;;;;4951826;28;20039;-67
2022/06/07 10:16:57;;;;;;;1.23;0.88;;;12.30;61.10;;;;;;4925272;29;20050;-65
2022/06/07 10:19:44;;;;;;;2.22;1.00;;;12.30;61.10;;;;;;4950666;28;20039;-67
2022/06/07 10:22:47;;;;;;;1.40;0.90;;;12.20;61.10;;;;;;4933626;28;20035;-68
2022/06/07 10:25:25;;;;;;;2.65;0.82;;;12.20;60.90;;;;;;4933243;28;20183;-64
2022/06/07 10:28:01;;;;;;;1.20;0.88;;;12.20;61.00;;;;;;4967164;28;20047;-68
2022/06/07 12:00:49;;;;;;;0.90;0.65;;;11.40;64.30;;;;;;4904731;29;20607;-69
2022/06/07 12:03:28;;;;;;;2.83;1.20;;;11.40;63.70;;;;;;4954185;28;20126;-68
2022/06/07 12:06:04;;;;;;;0.95;0.80;;;11.30;63.60;;;;;;4908337;29;20397;-68
2022/06/07 12:08:40;;;;;;;1.30;0.93;;;11.30;63.80;;;;;;4954790;28;20460;-67
2022/06/07 12:11:23;;;;;;;1.52;0.98;;;11.40;63.90;;;;;;4953705;28;20122;-68
2022/06/07 12:14:05;;;;;;;5.20;1.15;;;11.30;63.80;;;;;;4930538;29;20443;-68
2022/06/07 12:16:53;;;;;;;2.63;1.13;;;11.30;64.50;;;;;;4940437;28;20143;-68
2022/06/07 12:19:25;;;;;;;5.20;1.27;;;11.30;64.70;;;;;;4933615;29;20111;-68
2022/06/07 12:22:07;;;;;;;2.45;1.30;;;11.20;64.70;;;;;;4929569;29;20051;-68
2022/06/07 12:24:53;;;;;;;4.45;1.10;;;11.20;65.00;;;;;;4939394;29;20498;-68
2022/06/07 12:27:25;;;;;;;3.22;1.17;;;11.20;64.90;;;;;;4937916;28;20482;-68
2022/06/07 12:29:54;;;;;;;3.08;1.00;;;11.20;65.10;;;;;;4932644;29;20051;-68
2022/06/07 12:32:28;;;;;;;2.60;1.02;;;11.20;65.70;;;;;;4925246;29;20070;-69
2022/06/07 12:35:08;;;;;;;1.55;1.10;;;11.10;65.70;;;;;;4938554;29;20050;-68
2022/06/07 12:37:37;;;;;;;1.33;1.20;;;11.10;65.70;;;;;;4913628;29;20486;-68
2022/06/07 12:40:06;;;;;;;1.77;1.20;;;11.10;67.00;;;;;;4934970;29;20521;-69
2022/06/07 12:42:35;;;;;;;1.38;1.10;;;11.10;66.00;;;;;;4933236;29;20410;-68
2022/06/07 12:45:18;;;;;;;2.30;1.25;;;11.00;65.70;;;;;;4917467;29;20047;-69
2022/06/07 12:47:46;;;;;;;5.97;1.50;;;11.00;65.00;;;;;;4923604;29;20035;-68
2022/06/07 12:50:21;;;;;;;3.47;1.20;;;11.00;64.80;;;;;;4939258;29;20036;-68
2022/06/07 12:52:53;;;;;;;2.30;1.33;;;11.00;64.50;;;;;;4918184;29;20032;-68
2022/06/07 12:55:28;;;;;;;1.88;1.25;;;11.00;64.30;;;;;;4962370;28;20109;-68
2022/06/07 12:57:59;;;;;;;1.20;1.10;;;11.00;64.00;;;;;;4926027;29;20511;-68
2022/06/07 18:42:14;;;;;;;2.60;0.68;;;9.40;63.60;;;;;;4923259;28;20993;-67
2022/06/07 18:44:43;;;;;;;4.32;0.88;;;9.40;64.10;;;;;;4900215;29;20491;-67
2022/06/07 18:47:15;;;;;;;2.42;0.95;;;9.40;64.20;;;;;;4928366;29;20028;-67
2022/06/07 18:49:43;;;;;;;1.25;0.80;;;9.40;64.50;;;;;;4901130;29;20528;-66
2022/06/07 18:52:12;;;;;;;1.58;0.70;;;9.40;64.50;;;;;;4921970;29;20048;-67
2022/06/07 18:54:40;;;;;;;0.90;0.57;;;9.40;63.90;;;;;;4907519;29;20106;-67
2022/06/07 18:57:08;;;;;;;1.10;0.50;;;9.50;64.10;;;;;;4936523;29;20032;-66
2022/06/07 18:59:36;;;;;;;1.83;0.77;;;9.40;63.40;;;;;;4914813;29;20059;-66
2022/06/07 19:02:04;;;;;;;0.65;0.60;;;9.50;63.60;;;;;;4943408;29;20072;-67
2022/06/07 19:04:32;;;;;;;2.30;0.60;;;9.40;62.90;;;;;;4909507;29;20036;-67
2022/06/07 19:06:59;;;;;;;0.73;0.50;;;9.50;62.60;;;;;;4913622;29;20055;-67
2022/06/07 19:09:26;;;;;;;1.27;0.70;;;9.50;62.40;;;;;;4930253;29;20032;-67
2022/06/07 19:12:00;;;;;;;1.48;0.75;;;9.50;63.10;;;;;;4913278;29;20040;-66
2022/06/07 19:14:28;;;;;;;2.50;0.77;;;9.50;63.00;;;;;;4889338;29;20040;-66
2022/06/07 19:16:55;;;;;;;1.10;0.57;;;9.50;63.70;;;;;;4914112;29;20040;-66
2022/06/07 19:19:23;;;;;;;2.00;0.60;;;9.50;62.80;;;;;;4914510;29;20033;-66
2022/06/07 19:21:50;;;;;;;1.98;0.70;;;9.50;63.30;;;;;;4886644;29;20044;-67
2022/06/07 19:24:18;;;;;;;0.82;0.70;;;9.50;63.40;;;;;;4915824;29;20067;-74
2022/06/07 19:26:45;;;;;;;1.67;0.90;;;9.50;63.80;;;;;;4941299;28;20044;-70
2022/06/07 19:29:12;;;;;;;3.45;0.60;;;9.50;64.40;;;;;;4913705;29;20495;-69
2022/06/07 19:31:39;;;;;;;1.48;0.63;;;9.40;63.80;;;;;;4921539;29;20070;-68
2022/06/07 19:34:06;;;;;;;0.75;0.63;;;9.40;64.50;;;;;;4912725;29;20044;-69
2022/06/07 19:36:34;;;;;;;1.70;0.63;;;9.40;64.00;;;;;;4881549;29;20064;-69
2022/06/07 19:39:01;;;;;;;0.55;0.43;;;9.40;64.00;;;;;;4904802;29;20143;-67
2022/06/07 19:41:28;;;;;;;1.17;0.77;;;9.30;64.90;;;;;;4918530;29;20079;-67
2022/06/07 19:43:56;;;;;;;1.25;0.57;;;9.30;64.80;;;;;;4914919;29;20039;-67
2022/06/07 19:46:23;;;;;;;2.35;0.50;;;9.30;64.60;;;;;;4885163;29;20050;-67
2022/06/07 19:48:50;;;;;;;1.08;0.57;;;9.30;65.90;;;;;;4891049;29;20154;-68
2022/06/07 19:51:19;;;;;;;1.30;0.80;;;9.30;65.70;;;;;;4909425;29;20044;-67
2022/06/07 19:53:47;;;;;;;0.82;0.65;;;9.20;65.30;;;;;;4912555;29;20032;-67
2022/06/07 19:56:17;;;;;;;0.95;0.65;;;9.20;65.20;;;;;;4924436;29;20047;-67
2022/06/07 19:58:46;;;;;;;1.00;0.70;;;9.20;66.10;;;;;;4917704;29;20031;-67
2022/06/07 20:01:13;;;;;;;3.70;0.57;;;9.20;66.00;;;;;;4939112;29;20052;-67
2022/06/07 20:03:41;;;;;;;1.13;0.77;;;9.20;65.50;;;;;;4937109;29;20154;-66
2022/06/07 20:06:08;;;;;;;0.73;0.60;;;9.20;64.90;;;;;;4932579;28;20053;-70
2022/06/07 20:08:36;;;;;;;1.63;0.88;;;9.20;64.40;;;;;;4901475;29;20064;-69
2022/06/07 20:11:04;;;;;;;0.50;0.50;;;9.30;64.40;;;;;;4902307;29;20041;-69
2022/06/07 20:13:31;;;;;;;1.95;0.70;;;9.20;64.90;;;;;;4911589;29;20036;-70
2022/06/07 20:15:58;;;;;;;1.17;0.73;;;9.20;65.10;;;;;;4898494;29;20123;-69
2022/06/07 20:18:26;;;;;;;1.48;0.80;;;9.20;64.60;;;;;;4906703;29;20040;-69
2022/06/07 20:20:53;;;;;;;1.52;0.90;;;9.20;64.50;;;;;;4911418;29;20100;-70
2022/06/07 20:23:20;;;;;;;5.78;1.40;;;9.20;64.60;;;;;;4920016;29;20036;-69
2022/06/07 20:25:48;;;;;;;2.25;0.90;;;9.20;64.60;;;;;;4898955;29;20048;-69
2022/06/07 20:28:15;;;;;;;2.70;0.80;;;9.20;65.00;;;;;;4900994;29;20523;-69
2022/06/07 20:30:42;;;;;;;4.00;1.10;;;9.20;64.50;;;;;;4916019;29;20042;-70
2022/06/07 20:33:10;;;;;;;2.13;0.93;;;9.10;64.80;;;;;;4921967;29;20048;-70
2022/06/07 20:35:39;;;;;;;1.42;0.80;;;9.20;64.80;;;;;;4909893;29;20051;-70
2022/06/07 20:38:06;;;;;;;1.33;1.00;;;9.20;64.40;;;;;;4922355;29;20678;-70
2022/06/07 20:40:41;;;;;;;2.47;1.10;;;9.20;64.50;;;;;;4906488;29;20039;-69
2022/06/07 20:43:08;;;;;;;1.90;1.13;;;9.20;64.40;;;;;;4927869;29;20055;-68
2022/06/07 20:45:36;;;;;;;2.67;1.17;;;9.20;64.50;;;;;;4913433;29;20094;-68
2022/06/07 20:48:07;;;;;;;3.92;0.93;;;9.10;65.20;;;;;;4916005;29;20068;-68
2022/06/07 20:50:36;;;;;;;6.93;1.20;;;9.10;65.40;;;;;;4911712;29;20778;-68
2022/06/07 20:53:03;;;;;;;2.45;0.98;;;9.10;65.60;;;;;;4927339;29;20063;-68
2022/06/07 20:55:30;;;;;;;2.17;1.08;;;9.10;65.90;;;;;;4917621;29;20616;-68
2022/06/07 20:57:57;;;;;;;3.03;1.10;;;9.00;65.40;;;;;;4912534;29;20051;-68
2022/06/07 21:00:25;;;;;;;4.30;1.05;;;9.00;66.00;;;;;;4920029;29;20096;-69
2022/06/07 21:02:52;;;;;;;2.25;1.10;;;9.10;66.00;;;;;;4927102;29;20043;-69
2022/06/07 21:05:20;;;;;;;1.98;1.00;;;9.00;66.50;;;;;;4922065;29;20399;-70
2022/06/07 21:07:47;;;;;;;2.00;1.23;;;9.10;66.20;;;;;;4916587;29;20035;-68
2022/06/07 21:10:15;;;;;;;3.55;1.00;;;9.10;66.30;;;;;;4928544;29;20067;-68
2022/06/07 21:12:43;;;;;;;2.08;1.05;;;9.10;66.30;;;;;;4914952;29;20066;-68
2022/06/07 21:15:12;;;;;;;3.95;1.10;;;9.10;66.10;;;;;;4914274;29;20048;-65
2022/06/07 21:17:40;;;;;;;3.92;1.00;;;9.20;66.10;;;;;;4923575;29;20510;-66
2022/06/07 21:20:09;;;;;;;1.75;0.90;;;9.20;65.70;;;;;;4908018;29;20103;-66
2022/06/07 21:22:40;;;;;;;3.42;1.10;;;9.20;65.30;;;;;;4916457;29;20063;-66
2022/06/07 21:25:07;;;;;;;2.72;0.85;;;9.30;65.40;;;;;;4909651;29;20107;-66
2022/06/07 21:27:36;;;;;;;2.90;1.20;;;9.30;64.80;;;;;;4923269;29;20028;-67
2022/06/07 21:30:05;;;;;;;1.45;0.80;;;9.40;64.70;;;;;;4936928;29;20050;-67
2022/06/07 21:32:32;;;;;;;1.75;1.10;;;9.40;64.70;;;;;;4916721;29;20032;-69
2022/06/07 21:34:59;;;;;;;3.45;1.00;;;9.40;64.40;;;;;;4927988;29;20048;-68
2022/06/07 21:37:27;;;;;;;2.58;0.90;;;9.40;64.10;;;;;;4927104;29;20550;-68
2022/06/07 21:39:54;;;;;;;2.22;0.77;;;9.40;64.80;;;;;;4931534;29;20059;-69
2022/06/07 21:42:21;;;;;;;3.45;0.70;;;9.50;64.80;;;;;;4923760;29;20043;-69
2022/06/07 21:44:49;;;;;;;1.23;0.80;;;9.40;65.10;;;;;;4907729;29;20055;-69
2022/06/07 21:47:17;;;;;;;2.17;0.90;;;9.50;65.60;;;;;;4921261;29;20054;-69
2022/06/07 21:49:46;;;;;;;2.67;0.77;;;9.50;65.00;;;;;;4905935;29;20394;-68
2022/06/07 21:52:13;;;;;;;6.22;1.05;;;9.60;65.70;;;;;;4887294;29;20035;-69
2022/06/07 21:54:40;;;;;;;6.50;0.90;;;9.60;65.00;;;;;;4908768;29;20047;-68
2022/06/07 22:38:56;;;;;;;5.30;0.98;;;10.10;62.90;;;;;;4941363;28;20138;-66
2022/06/07 22:41:23;;;;;;;2.85;1.27;;;10.10;63.60;;;;;;4924039;29;20490;-66